sensor_id;sensor_type;location;lat;lon;timestamp;temperature;humidity
18173;DHT22;9211;48.818;9.312;2024-02-14T00:00:54;4.20;99.90
18173;DHT22;9211;48.818;9.312;2024-02-14T00:05:49;4.40;99.90
18173;DHT22;9211;48.818;9.312;2024-02-14T00:08:17;4.40;99.90
18173;DHT22;9211;48.818;9.312;2024-02-14T00:10:45;4.60;99.90
18173;DHT22;9211;48.818;9.312;2024-02-14T00:13:14;4.40;99.90
18173;DHT22;9211;48.818;9.312;2024-02-14T00:18:11;4.60;99.90
18173;DHT22;9211;48.818;9.312;2024-02-14T00:20:38;8.30;99.90
18173;DHT22;9211;48.818;9.312;2024-02-14T00:23:05;4.40;99.90
18173;DHT22;9211;48.818;9.312;2024-02-14T00:32:56;4.60;99.90
18173;DHT22;9211;48.818;9.312;2024-02-14T00:35:24;4.70;99.90
18173;DHT22;9211;48.818;9.312;2024-02-14T00:37:50;4.90;99.90
18173;DHT22;9211;48.818;9.312;2024-02-14T00:40:18;4.00;99.90
18173;DHT22;9211;48.818;9.312;2024-02-14T00:42:44;4.50;99.90
18173;DHT22;9211;48.818;9.312;2024-02-14T00:45:13;4.60;99.90
18173;DHT22;9211;48.818;9.312;2024-02-14T00:47:40;4.60;99.90
18173;DHT22;9211;48.818;9.312;2024-02-14T00:50:08;4.40;99.90
18173;DHT22;9211;48.818;9.312;2024-02-14T00:55:02;4.50;99.90
18173;DHT22;9211;48.818;9.312;2024-02-14T00:57:29;5.00;99.90
18173;DHT22;9211;48.818;9.312;2024-02-14T01:02:25;5.10;99.90
18173;DHT22;9211;48.818;9.312;2024-02-14T01:04:52;5.20;99.90
18173;DHT22;9211;48.818;9.312;2024-02-14T01:07:19;3.70;99.90
18173;DHT22;9211;48.818;9.312;2024-02-14T01:09:46;3.40;99.90
18173;DHT22;9211;48.818;9.312;2024-02-14T01:12:13;5.30;99.90
18173;DHT22;9211;48.818;9.312;2024-02-14T01:14:40;5.20;99.90
18173;DHT22;9211;48.818;9.312;2024-02-14T01:17:07;6.50;99.90
18173;DHT22;9211;48.818;9.312;2024-02-14T01:19:35;6.00;99.90
18173;DHT22;9211;48.818;9.312;2024-02-14T01:22:02;5.40;99.90
18173;DHT22;9211;48.818;9.312;2024-02-14T01:24:29;5.50;99.90
18173;DHT22;9211;48.818;9.312;2024-02-14T01:26:56;5.40;99.90
18173;DHT22;9211;48.818;9.312;2024-02-14T01:29:23;5.40;99.90
18173;DHT22;9211;48.818;9.312;2024-02-14T01:31:50;5.50;99.90
18173;DHT22;9211;48.818;9.312;2024-02-14T01:34:17;5.40;99.90
18173;DHT22;9211;48.818;9.312;2024-02-14T01:36:46;5.70;99.90
18173;DHT22;9211;48.818;9.312;2024-02-14T01:39:12;6.00;99.90
18173;DHT22;9211;48.818;9.312;2024-02-14T01:44:11;5.50;99.90
18173;DHT22;9211;48.818;9.312;2024-02-14T01:46:38;7.40;99.90
18173;DHT22;9211;48.818;9.312;2024-02-14T01:51:33;5.60;99.90
18173;DHT22;9211;48.818;9.312;2024-02-14T01:54:03;5.80;99.90
18173;DHT22;9211;48.818;9.312;2024-02-14T01:56:31;5.70;99.90
18173;DHT22;9211;48.818;9.312;2024-02-14T01:58:58;5.80;99.90
18173;DHT22;9211;48.818;9.312;2024-02-14T02:03:53;6.50;99.90
18173;DHT22;9211;48.818;9.312;2024-02-14T02:06:20;5.70;99.90
18173;DHT22;9211;48.818;9.312;2024-02-14T02:08:47;5.90;99.90
18173;DHT22;9211;48.818;9.312;2024-02-14T02:11:16;6.50;99.90
18173;DHT22;9211;48.818;9.312;2024-02-14T02:13:43;5.80;99.90
18173;DHT22;9211;48.818;9.312;2024-02-14T02:16:10;6.00;99.90
18173;DHT22;9211;48.818;9.312;2024-02-14T02:18:38;6.00;99.90
18173;DHT22;9211;48.818;9.312;2024-02-14T02:21:05;6.00;99.90
18173;DHT22;9211;48.818;9.312;2024-02-14T02:26:04;6.10;99.90
18173;DHT22;9211;48.818;9.312;2024-02-14T02:28:31;6.30;99.90
18173;DHT22;9211;48.818;9.312;2024-02-14T02:30:58;6.10;99.90
18173;DHT22;9211;48.818;9.312;2024-02-14T02:33:24;6.20;99.90
18173;DHT22;9211;48.818;9.312;2024-02-14T02:35:51;6.00;99.90
18173;DHT22;9211;48.818;9.312;2024-02-14T02:40:48;5.70;99.90
18173;DHT22;9211;48.818;9.312;2024-02-14T02:43:14;6.10;99.90
18173;DHT22;9211;48.818;9.312;2024-02-14T02:45:41;6.30;99.90
18173;DHT22;9211;48.818;9.312;2024-02-14T02:48:09;6.10;99.90
18173;DHT22;9211;48.818;9.312;2024-02-14T02:50:36;6.50;99.90
18173;DHT22;9211;48.818;9.312;2024-02-14T03:03:09;6.50;99.90
18173;DHT22;9211;48.818;9.312;2024-02-14T03:05:36;6.90;99.90
18173;DHT22;9211;48.818;9.312;2024-02-14T03:08:05;6.10;99.90
18173;DHT22;9211;48.818;9.312;2024-02-14T03:10:33;6.30;99.90
18173;DHT22;9211;48.818;9.312;2024-02-14T03:13:01;5.70;99.90
18173;DHT22;9211;48.818;9.312;2024-02-14T03:15:28;6.10;99.90
18173;DHT22;9211;48.818;9.312;2024-02-14T03:17:55;6.20;99.90
18173;DHT22;9211;48.818;9.312;2024-02-14T03:20:22;6.30;99.90
18173;DHT22;9211;48.818;9.312;2024-02-14T03:22:48;6.20;99.90
18173;DHT22;9211;48.818;9.312;2024-02-14T03:25:17;6.30;99.90
18173;DHT22;9211;48.818;9.312;2024-02-14T03:27:44;6.20;99.90
18173;DHT22;9211;48.818;9.312;2024-02-14T03:35:09;6.10;99.90
18173;DHT22;9211;48.818;9.312;2024-02-14T03:40:07;6.00;99.90
18173;DHT22;9211;48.818;9.312;2024-02-14T03:47:34;6.00;99.90
18173;DHT22;9211;48.818;9.312;2024-02-14T03:50:06;6.20;99.90
18173;DHT22;9211;48.818;9.312;2024-02-14T03:52:33;6.40;99.90
18173;DHT22;9211;48.818;9.312;2024-02-14T03:55:01;6.40;99.90
18173;DHT22;9211;48.818;9.312;2024-02-14T03:57:28;6.30;99.90
18173;DHT22;9211;48.818;9.312;2024-02-14T03:59:55;6.50;99.90
18173;DHT22;9211;48.818;9.312;2024-02-14T04:02:22;6.50;99.90
18173;DHT22;9211;48.818;9.312;2024-02-14T04:04:51;6.50;99.90
18173;DHT22;9211;48.818;9.312;2024-02-14T04:07:18;6.50;99.90
18173;DHT22;9211;48.818;9.312;2024-02-14T04:09:45;6.50;99.90
18173;DHT22;9211;48.818;9.312;2024-02-14T04:12:12;3.60;99.90
18173;DHT22;9211;48.818;9.312;2024-02-14T04:14:39;6.40;99.90
18173;DHT22;9211;48.818;9.312;2024-02-14T04:17:06;6.30;99.90
18173;DHT22;9211;48.818;9.312;2024-02-14T04:19:34;6.30;99.90
18173;DHT22;9211;48.818;9.312;2024-02-14T04:22:02;6.30;99.90
18173;DHT22;9211;48.818;9.312;2024-02-14T04:24:29;6.40;99.90
18173;DHT22;9211;48.818;9.312;2024-02-14T04:26:59;6.20;99.90
18173;DHT22;9211;48.818;9.312;2024-02-14T04:29:28;6.60;99.90
18173;DHT22;9211;48.818;9.312;2024-02-14T04:31:58;6.80;99.90
18173;DHT22;9211;48.818;9.312;2024-02-14T04:34:25;6.50;99.90
18173;DHT22;9211;48.818;9.312;2024-02-14T04:36:52;6.40;99.90
18173;DHT22;9211;48.818;9.312;2024-02-14T04:39:21;6.50;99.90
18173;DHT22;9211;48.818;9.312;2024-02-14T04:41:48;6.50;99.90
18173;DHT22;9211;48.818;9.312;2024-02-14T04:44:15;6.50;99.90
18173;DHT22;9211;48.818;9.312;2024-02-14T04:46:42;6.50;99.90
18173;DHT22;9211;48.818;9.312;2024-02-14T04:49:10;6.50;99.90
18173;DHT22;9211;48.818;9.312;2024-02-14T04:51:37;6.50;99.90
18173;DHT22;9211;48.818;9.312;2024-02-14T04:54:04;6.40;99.90
18173;DHT22;9211;48.818;9.312;2024-02-14T04:56:32;6.40;99.90
18173;DHT22;9211;48.818;9.312;2024-02-14T05:01:27;6.70;99.90
18173;DHT22;9211;48.818;9.312;2024-02-14T05:03:54;6.70;99.90
18173;DHT22;9211;48.818;9.312;2024-02-14T05:06:21;6.60;99.90
18173;DHT22;9211;48.818;9.312;2024-02-14T05:08:48;6.70;99.90
18173;DHT22;9211;48.818;9.312;2024-02-14T05:11:17;6.70;99.90
18173;DHT22;9211;48.818;9.312;2024-02-14T05:13:45;6.80;99.90
18173;DHT22;9211;48.818;9.312;2024-02-14T05:16:12;6.90;99.90
18173;DHT22;9211;48.818;9.312;2024-02-14T05:18:39;7.00;99.90
18173;DHT22;9211;48.818;9.312;2024-02-14T05:21:07;7.00;99.90
18173;DHT22;9211;48.818;9.312;2024-02-14T05:23:34;7.10;99.90
18173;DHT22;9211;48.818;9.312;2024-02-14T05:28:28;7.40;99.90
18173;DHT22;9211;48.818;9.312;2024-02-14T05:30:57;7.40;99.90
18173;DHT22;9211;48.818;9.312;2024-02-14T05:33:24;7.50;99.90
18173;DHT22;9211;48.818;9.312;2024-02-14T05:35:52;7.30;99.90
18173;DHT22;9211;48.818;9.312;2024-02-14T05:38:19;7.30;99.90
18173;DHT22;9211;48.818;9.312;2024-02-14T05:40:46;7.30;99.90
18173;DHT22;9211;48.818;9.312;2024-02-14T05:43:12;8.70;99.90
18173;DHT22;9211;48.818;9.312;2024-02-14T05:53:03;7.30;99.90
18173;DHT22;9211;48.818;9.312;2024-02-14T05:55:31;7.40;99.90
18173;DHT22;9211;48.818;9.312;2024-02-14T05:57:59;7.30;99.90
18173;DHT22;9211;48.818;9.312;2024-02-14T06:00:26;7.40;99.90
18173;DHT22;9211;48.818;9.312;2024-02-14T06:02:53;7.30;99.90
18173;DHT22;9211;48.818;9.312;2024-02-14T06:05:21;7.40;99.90
18173;DHT22;9211;48.818;9.312;2024-02-14T06:07:49;7.30;99.90
18173;DHT22;9211;48.818;9.312;2024-02-14T06:10:16;7.40;99.90
18173;DHT22;9211;48.818;9.312;2024-02-14T06:12:43;7.40;99.90
18173;DHT22;9211;48.818;9.312;2024-02-14T06:15:10;7.80;99.90
18173;DHT22;9211;48.818;9.312;2024-02-14T06:17:37;7.40;99.90
18173;DHT22;9211;48.818;9.312;2024-02-14T06:20:05;7.40;99.90
18173;DHT22;9211;48.818;9.312;2024-02-14T06:22:34;7.40;99.90
18173;DHT22;9211;48.818;9.312;2024-02-14T06:25:01;7.40;99.90
18173;DHT22;9211;48.818;9.312;2024-02-14T06:27:30;7.50;99.90
18173;DHT22;9211;48.818;9.312;2024-02-14T06:29:57;7.60;99.90
18173;DHT22;9211;48.818;9.312;2024-02-14T06:32:25;7.70;99.90
18173;DHT22;9211;48.818;9.312;2024-02-14T06:34:52;7.60;99.90
18173;DHT22;9211;48.818;9.312;2024-02-14T06:37:19;7.70;99.90
18173;DHT22;9211;48.818;9.312;2024-02-14T06:39:47;6.50;99.90
18173;DHT22;9211;48.818;9.312;2024-02-14T06:42:15;7.70;99.90
18173;DHT22;9211;48.818;9.312;2024-02-14T06:44:42;7.80;99.90
18173;DHT22;9211;48.818;9.312;2024-02-14T06:52:04;7.90;99.90
18173;DHT22;9211;48.818;9.312;2024-02-14T06:54:31;8.10;99.90
18173;DHT22;9211;48.818;9.312;2024-02-14T06:56:59;7.70;99.90
18173;DHT22;9211;48.818;9.312;2024-02-14T06:59:26;8.30;99.90
18173;DHT22;9211;48.818;9.312;2024-02-14T07:04:20;8.70;99.90
18173;DHT22;9211;48.818;9.312;2024-02-14T07:06:51;8.20;99.90
18173;DHT22;9211;48.818;9.312;2024-02-14T07:14:14;8.40;99.90
18173;DHT22;9211;48.818;9.312;2024-02-14T07:19:08;8.50;99.90
18173;DHT22;9211;48.818;9.312;2024-02-14T07:21:35;8.40;99.90
18173;DHT22;9211;48.818;9.312;2024-02-14T07:24:04;8.30;99.90
18173;DHT22;9211;48.818;9.312;2024-02-14T07:26:31;8.20;99.90
18173;DHT22;9211;48.818;9.312;2024-02-14T07:28:58;8.40;99.90
18173;DHT22;9211;48.818;9.312;2024-02-14T07:31:29;8.50;99.90
18173;DHT22;9211;48.818;9.312;2024-02-14T07:33:59;8.70;99.90
18173;DHT22;9211;48.818;9.312;2024-02-14T07:36:26;8.70;99.90
18173;DHT22;9211;48.818;9.312;2024-02-14T07:38:52;8.60;99.90
18173;DHT22;9211;48.818;9.312;2024-02-14T07:41:19;8.90;99.90
18173;DHT22;9211;48.818;9.312;2024-02-14T07:43:46;8.50;99.90
18173;DHT22;9211;48.818;9.312;2024-02-14T07:46:17;8.40;99.90
18173;DHT22;9211;48.818;9.312;2024-02-14T07:51:14;8.70;99.90
18173;DHT22;9211;48.818;9.312;2024-02-14T07:53:41;8.60;99.90
18173;DHT22;9211;48.818;9.312;2024-02-14T07:56:08;8.60;99.90
18173;DHT22;9211;48.818;9.312;2024-02-14T07:58:35;8.80;99.90
18173;DHT22;9211;48.818;9.312;2024-02-14T08:01:02;8.80;99.90
18173;DHT22;9211;48.818;9.312;2024-02-14T08:03:29;8.70;99.90
18173;DHT22;9211;48.818;9.312;2024-02-14T08:05:58;8.80;99.90
18173;DHT22;9211;48.818;9.312;2024-02-14T08:08:26;8.90;99.90
18173;DHT22;9211;48.818;9.312;2024-02-14T08:13:21;8.90;99.90
18173;DHT22;9211;48.818;9.312;2024-02-14T08:15:48;8.80;99.90
18173;DHT22;9211;48.818;9.312;2024-02-14T08:18:15;9.20;99.90
18173;DHT22;9211;48.818;9.312;2024-02-14T08:20:42;9.10;99.90
18173;DHT22;9211;48.818;9.312;2024-02-14T08:23:10;9.00;99.90
18173;DHT22;9211;48.818;9.312;2024-02-14T08:35:27;9.70;99.90
18173;DHT22;9211;48.818;9.312;2024-02-14T08:37:54;10.00;99.90
18173;DHT22;9211;48.818;9.312;2024-02-14T08:40:22;10.10;99.90
18173;DHT22;9211;48.818;9.312;2024-02-14T08:45:17;9.60;99.90
18173;DHT22;9211;48.818;9.312;2024-02-14T08:47:44;10.00;99.90
18173;DHT22;9211;48.818;9.312;2024-02-14T08:50:11;10.30;99.90
18173;DHT22;9211;48.818;9.312;2024-02-14T08:52:38;10.30;99.90
18173;DHT22;9211;48.818;9.312;2024-02-14T08:55:06;10.10;99.90
18173;DHT22;9211;48.818;9.312;2024-02-14T08:57:41;10.50;99.90
18173;DHT22;9211;48.818;9.312;2024-02-14T09:00:09;10.30;99.90
18173;DHT22;9211;48.818;9.312;2024-02-14T09:02:40;10.60;99.90
18173;DHT22;9211;48.818;9.312;2024-02-14T09:05:08;10.70;99.90
18173;DHT22;9211;48.818;9.312;2024-02-14T09:12:31;11.00;99.90
18173;DHT22;9211;48.818;9.312;2024-02-14T09:15:00;10.50;99.90
18173;DHT22;9211;48.818;9.312;2024-02-14T09:19:55;10.90;99.90
18173;DHT22;9211;48.818;9.312;2024-02-14T09:22:21;11.20;99.90
18173;DHT22;9211;48.818;9.312;2024-02-14T09:27:16;11.40;99.90
18173;DHT22;9211;48.818;9.312;2024-02-14T09:29:43;11.20;99.90
18173;DHT22;9211;48.818;9.312;2024-02-14T09:32:11;11.50;99.90
18173;DHT22;9211;48.818;9.312;2024-02-14T09:34:38;11.40;99.90
18173;DHT22;9211;48.818;9.312;2024-02-14T09:37:05;11.60;99.90
18173;DHT22;9211;48.818;9.312;2024-02-14T09:42:08;11.60;99.90
18173;DHT22;9211;48.818;9.312;2024-02-14T09:44:36;11.30;99.90
18173;DHT22;9211;48.818;9.312;2024-02-14T09:47:05;11.40;99.90
18173;DHT22;9211;48.818;9.312;2024-02-14T09:49:35;11.50;99.90
18173;DHT22;9211;48.818;9.312;2024-02-14T09:54:31;11.20;99.90
18173;DHT22;9211;48.818;9.312;2024-02-14T09:57:00;12.20;99.90
18173;DHT22;9211;48.818;9.312;2024-02-14T09:59:29;11.80;99.90
18173;DHT22;9211;48.818;9.312;2024-02-14T10:01:59;12.20;99.90
18173;DHT22;9211;48.818;9.312;2024-02-14T10:04:32;12.10;99.90
18173;DHT22;9211;48.818;9.312;2024-02-14T10:06:59;11.70;99.90
18173;DHT22;9211;48.818;9.312;2024-02-14T10:09:27;12.40;99.90
18173;DHT22;9211;48.818;9.312;2024-02-14T10:11:54;12.00;99.90
18173;DHT22;9211;48.818;9.312;2024-02-14T10:14:23;11.90;99.90
18173;DHT22;9211;48.818;9.312;2024-02-14T10:16:50;12.10;99.90
18173;DHT22;9211;48.818;9.312;2024-02-14T10:19:19;12.20;99.90
18173;DHT22;9211;48.818;9.312;2024-02-14T10:21:56;12.40;99.90
18173;DHT22;9211;48.818;9.312;2024-02-14T10:26:52;13.00;99.90
18173;DHT22;9211;48.818;9.312;2024-02-14T10:29:19;12.70;99.90
18173;DHT22;9211;48.818;9.312;2024-02-14T10:31:47;12.70;99.90
18173;DHT22;9211;48.818;9.312;2024-02-14T10:34:14;12.80;99.90
18173;DHT22;9211;48.818;9.312;2024-02-14T10:36:42;12.90;99.90
18173;DHT22;9211;48.818;9.312;2024-02-14T10:39:12;12.90;99.90
18173;DHT22;9211;48.818;9.312;2024-02-14T10:41:41;12.80;99.90
18173;DHT22;9211;48.818;9.312;2024-02-14T10:44:09;13.00;99.90
18173;DHT22;9211;48.818;9.312;2024-02-14T10:46:40;13.20;99.90
18173;DHT22;9211;48.818;9.312;2024-02-14T10:49:08;13.20;99.90
18173;DHT22;9211;48.818;9.312;2024-02-14T10:51:38;13.40;99.90
18173;DHT22;9211;48.818;9.312;2024-02-14T10:54:11;13.60;99.90
18173;DHT22;9211;48.818;9.312;2024-02-14T10:56:39;13.60;99.90
18173;DHT22;9211;48.818;9.312;2024-02-14T10:59:08;14.00;99.90
18173;DHT22;9211;48.818;9.312;2024-02-14T11:01:37;14.30;99.90
18173;DHT22;9211;48.818;9.312;2024-02-14T11:04:05;14.00;99.90
18173;DHT22;9211;48.818;9.312;2024-02-14T11:06:31;14.50;99.90
18173;DHT22;9211;48.818;9.312;2024-02-14T11:09:01;14.70;99.90
18173;DHT22;9211;48.818;9.312;2024-02-14T11:11:33;14.40;99.90
18173;DHT22;9211;48.818;9.312;2024-02-14T11:14:01;14.50;99.90
18173;DHT22;9211;48.818;9.312;2024-02-14T11:16:31;14.50;99.90
18173;DHT22;9211;48.818;9.312;2024-02-14T11:19:08;14.30;99.90
18173;DHT22;9211;48.818;9.312;2024-02-14T11:21:36;14.70;99.90
18173;DHT22;9211;48.818;9.312;2024-02-14T11:24:05;14.30;99.90
18173;DHT22;9211;48.818;9.312;2024-02-14T11:26:39;14.20;99.90
18173;DHT22;9211;48.818;9.312;2024-02-14T11:29:06;14.30;99.90
18173;DHT22;9211;48.818;9.312;2024-02-14T11:31:35;14.00;99.90
18173;DHT22;9211;48.818;9.312;2024-02-14T11:34:04;14.30;99.90
18173;DHT22;9211;48.818;9.312;2024-02-14T11:36:32;13.80;99.90
18173;DHT22;9211;48.818;9.312;2024-02-14T11:39:03;14.00;99.90
18173;DHT22;9211;48.818;9.312;2024-02-14T11:41:32;14.10;99.90
18173;DHT22;9211;48.818;9.312;2024-02-14T11:46:33;13.80;99.90
18173;DHT22;9211;48.818;9.312;2024-02-14T11:49:02;14.20;99.90
18173;DHT22;9211;48.818;9.312;2024-02-14T11:51:29;14.00;99.90
18173;DHT22;9211;48.818;9.312;2024-02-14T11:53:57;14.00;99.90
18173;DHT22;9211;48.818;9.312;2024-02-14T11:56:30;14.00;99.90
18173;DHT22;9211;48.818;9.312;2024-02-14T12:01:30;13.70;99.90
18173;DHT22;9211;48.818;9.312;2024-02-14T12:03:57;13.70;99.90
18173;DHT22;9211;48.818;9.312;2024-02-14T12:06:24;14.10;99.90
18173;DHT22;9211;48.818;9.312;2024-02-14T12:08:52;13.60;99.90
18173;DHT22;9211;48.818;9.312;2024-02-14T12:13:49;13.70;99.90
18173;DHT22;9211;48.818;9.312;2024-02-14T12:16:17;14.00;99.90
18173;DHT22;9211;48.818;9.312;2024-02-14T12:21:14;13.80;99.90
18173;DHT22;9211;48.818;9.312;2024-02-14T12:23:42;14.20;99.90
18173;DHT22;9211;48.818;9.312;2024-02-14T12:26:10;13.80;99.90
18173;DHT22;9211;48.818;9.312;2024-02-14T12:28:46;13.60;99.90
18173;DHT22;9211;48.818;9.312;2024-02-14T12:31:22;13.50;99.90
18173;DHT22;9211;48.818;9.312;2024-02-14T12:33:50;13.70;99.90
18173;DHT22;9211;48.818;9.312;2024-02-14T12:36:20;13.60;99.90
18173;DHT22;9211;48.818;9.312;2024-02-14T12:38:47;14.00;99.90
18173;DHT22;9211;48.818;9.312;2024-02-14T12:43:41;13.80;99.90
18173;DHT22;9211;48.818;9.312;2024-02-14T12:46:08;14.00;99.90
18173;DHT22;9211;48.818;9.312;2024-02-14T12:53:31;14.20;99.90
18173;DHT22;9211;48.818;9.312;2024-02-14T12:55:57;16.10;99.90
18173;DHT22;9211;48.818;9.312;2024-02-14T12:58:24;14.40;99.90
18173;DHT22;9211;48.818;9.312;2024-02-14T13:03:19;14.50;99.90
18173;DHT22;9211;48.818;9.312;2024-02-14T13:08:15;15.20;99.90
18173;DHT22;9211;48.818;9.312;2024-02-14T13:10:43;15.00;99.90
18173;DHT22;9211;48.818;9.312;2024-02-14T13:13:10;15.10;99.90
18173;DHT22;9211;48.818;9.312;2024-02-14T13:15:37;15.30;99.90
18173;DHT22;9211;48.818;9.312;2024-02-14T13:18:06;14.70;99.90
18173;DHT22;9211;48.818;9.312;2024-02-14T13:20:33;14.90;99.90
18173;DHT22;9211;48.818;9.312;2024-02-14T13:23:00;14.70;99.90
18173;DHT22;9211;48.818;9.312;2024-02-14T13:27:56;14.80;99.90
18173;DHT22;9211;48.818;9.312;2024-02-14T13:30:24;15.10;99.90
18173;DHT22;9211;48.818;9.312;2024-02-14T13:32:51;14.80;99.90
18173;DHT22;9211;48.818;9.312;2024-02-14T13:35:18;14.50;99.90
18173;DHT22;9211;48.818;9.312;2024-02-14T13:37:45;14.80;99.90
18173;DHT22;9211;48.818;9.312;2024-02-14T13:40:12;15.30;99.90
18173;DHT22;9211;48.818;9.312;2024-02-14T13:42:40;14.70;99.90
18173;DHT22;9211;48.818;9.312;2024-02-14T13:45:08;15.50;99.90
18173;DHT22;9211;48.818;9.312;2024-02-14T13:47:36;15.00;99.90
18173;DHT22;9211;48.818;9.312;2024-02-14T13:50:05;14.90;99.90
18173;DHT22;9211;48.818;9.312;2024-02-14T13:52:32;15.20;99.90
18173;DHT22;9211;48.818;9.312;2024-02-14T13:54:59;15.00;99.90
18173;DHT22;9211;48.818;9.312;2024-02-14T13:57:27;15.10;99.90
18173;DHT22;9211;48.818;9.312;2024-02-14T14:02:23;15.20;99.90
18173;DHT22;9211;48.818;9.312;2024-02-14T14:04:50;15.70;99.90
18173;DHT22;9211;48.818;9.312;2024-02-14T14:07:18;14.60;99.90
18173;DHT22;9211;48.818;9.312;2024-02-14T14:09:45;15.20;99.90
18173;DHT22;9211;48.818;9.312;2024-02-14T14:12:12;14.80;99.90
18173;DHT22;9211;48.818;9.312;2024-02-14T14:14:39;14.80;99.90
18173;DHT22;9211;48.818;9.312;2024-02-14T14:17:07;14.80;99.90
18173;DHT22;9211;48.818;9.312;2024-02-14T14:22:02;15.00;99.90
18173;DHT22;9211;48.818;9.312;2024-02-14T14:26:57;15.00;99.90
18173;DHT22;9211;48.818;9.312;2024-02-14T14:29:24;15.00;99.90
18173;DHT22;9211;48.818;9.312;2024-02-14T14:31:51;15.20;99.90
18173;DHT22;9211;48.818;9.312;2024-02-14T14:34:19;14.60;99.90
18173;DHT22;9211;48.818;9.312;2024-02-14T14:36:46;13.90;99.90
18173;DHT22;9211;48.818;9.312;2024-02-14T14:39:13;14.70;99.90
18173;DHT22;9211;48.818;9.312;2024-02-14T14:41:40;14.90;99.90
18173;DHT22;9211;48.818;9.312;2024-02-14T14:44:07;14.80;99.90
18173;DHT22;9211;48.818;9.312;2024-02-14T14:46:34;15.50;99.90
18173;DHT22;9211;48.818;9.312;2024-02-14T14:49:07;15.40;99.90
18173;DHT22;9211;48.818;9.312;2024-02-14T14:51:36;15.00;99.90
18173;DHT22;9211;48.818;9.312;2024-02-14T14:54:03;15.00;99.90
18173;DHT22;9211;48.818;9.312;2024-02-14T14:56:31;15.00;99.90
18173;DHT22;9211;48.818;9.312;2024-02-14T14:58:58;14.80;99.90
18173;DHT22;9211;48.818;9.312;2024-02-14T15:01:28;14.90;99.90
18173;DHT22;9211;48.818;9.312;2024-02-14T15:03:55;14.60;99.90
18173;DHT22;9211;48.818;9.312;2024-02-14T15:08:51;14.90;99.90
18173;DHT22;9211;48.818;9.312;2024-02-14T15:11:18;14.60;99.90
18173;DHT22;9211;48.818;9.312;2024-02-14T15:13:46;16.10;99.90
18173;DHT22;9211;48.818;9.312;2024-02-14T15:16:13;15.00;99.90
18173;DHT22;9211;48.818;9.312;2024-02-14T15:18:40;14.60;99.90
18173;DHT22;9211;48.818;9.312;2024-02-14T15:21:08;15.20;99.90
18173;DHT22;9211;48.818;9.312;2024-02-14T15:23:35;15.20;99.90
18173;DHT22;9211;48.818;9.312;2024-02-14T15:31:05;14.80;99.90
18173;DHT22;9211;48.818;9.312;2024-02-14T15:33:50;14.80;99.90
18173;DHT22;9211;48.818;9.312;2024-02-14T15:36:17;14.70;99.90
18173;DHT22;9211;48.818;9.312;2024-02-14T15:38:44;14.90;99.90
18173;DHT22;9211;48.818;9.312;2024-02-14T15:43:40;15.20;99.90
18173;DHT22;9211;48.818;9.312;2024-02-14T15:46:09;14.90;99.90
18173;DHT22;9211;48.818;9.312;2024-02-14T15:48:39;14.70;99.90
18173;DHT22;9211;48.818;9.312;2024-02-14T15:51:07;15.10;99.90
18173;DHT22;9211;48.818;9.312;2024-02-14T15:56:04;14.90;99.90
18173;DHT22;9211;48.818;9.312;2024-02-14T15:58:32;12.40;99.90
18173;DHT22;9211;48.818;9.312;2024-02-14T16:00:59;15.00;99.90
18173;DHT22;9211;48.818;9.312;2024-02-14T16:03:26;14.60;99.90
18173;DHT22;9211;48.818;9.312;2024-02-14T16:05:54;14.60;99.90
18173;DHT22;9211;48.818;9.312;2024-02-14T16:08:21;14.70;99.90
18173;DHT22;9211;48.818;9.312;2024-02-14T16:10:48;15.00;99.90
18173;DHT22;9211;48.818;9.312;2024-02-14T16:13:15;11.70;99.90
18173;DHT22;9211;48.818;9.312;2024-02-14T16:15:44;14.90;99.90
18173;DHT22;9211;48.818;9.312;2024-02-14T16:23:05;14.70;99.90
18173;DHT22;9211;48.818;9.312;2024-02-14T16:25:32;14.70;99.90
18173;DHT22;9211;48.818;9.312;2024-02-14T16:28:03;14.40;99.90
18173;DHT22;9211;48.818;9.312;2024-02-14T16:30:31;14.40;99.90
18173;DHT22;9211;48.818;9.312;2024-02-14T16:32:59;15.00;99.90
18173;DHT22;9211;48.818;9.312;2024-02-14T16:35:27;14.90;99.90
18173;DHT22;9211;48.818;9.312;2024-02-14T16:37:56;14.30;99.90
18173;DHT22;9211;48.818;9.312;2024-02-14T16:42:53;14.20;99.90
18173;DHT22;9211;48.818;9.312;2024-02-14T16:47:47;14.30;99.90
18173;DHT22;9211;48.818;9.312;2024-02-14T16:52:43;14.80;99.90
18173;DHT22;9211;48.818;9.312;2024-02-14T16:55:10;14.40;99.90
18173;DHT22;9211;48.818;9.312;2024-02-14T16:57:37;14.60;99.90
18173;DHT22;9211;48.818;9.312;2024-02-14T17:02:32;14.50;99.90
18173;DHT22;9211;48.818;9.312;2024-02-14T17:04:59;15.00;99.90
18173;DHT22;9211;48.818;9.312;2024-02-14T17:07:27;14.60;99.90
18173;DHT22;9211;48.818;9.312;2024-02-14T17:09:56;14.50;99.90
18173;DHT22;9211;48.818;9.312;2024-02-14T17:12:24;14.70;99.90
18173;DHT22;9211;48.818;9.312;2024-02-14T17:14:51;15.00;99.90
18173;DHT22;9211;48.818;9.312;2024-02-14T17:22:15;14.30;99.90
18173;DHT22;9211;48.818;9.312;2024-02-14T17:27:11;14.30;99.90
18173;DHT22;9211;48.818;9.312;2024-02-14T17:32:05;14.50;99.90
18173;DHT22;9211;48.818;9.312;2024-02-14T17:34:33;14.40;99.90
18173;DHT22;9211;48.818;9.312;2024-02-14T17:39:27;14.50;99.90
18173;DHT22;9211;48.818;9.312;2024-02-14T17:46:50;12.20;99.90
18173;DHT22;9211;48.818;9.312;2024-02-14T17:54:13;14.50;99.90
18173;DHT22;9211;48.818;9.312;2024-02-14T17:56:40;14.40;99.90
18173;DHT22;9211;48.818;9.312;2024-02-14T18:01:35;14.70;99.90
18173;DHT22;9211;48.818;9.312;2024-02-14T18:06:30;14.10;99.90
18173;DHT22;9211;48.818;9.312;2024-02-14T18:08:57;14.60;99.90
18173;DHT22;9211;48.818;9.312;2024-02-14T18:11:24;14.70;99.90
18173;DHT22;9211;48.818;9.312;2024-02-14T18:13:51;14.60;99.90
18173;DHT22;9211;48.818;9.312;2024-02-14T18:26:09;14.20;99.90
18173;DHT22;9211;48.818;9.312;2024-02-14T18:28:37;14.50;99.90
18173;DHT22;9211;48.818;9.312;2024-02-14T18:31:04;14.20;99.90
18173;DHT22;9211;48.818;9.312;2024-02-14T18:33:32;14.80;99.90
18173;DHT22;9211;48.818;9.312;2024-02-14T18:38:29;14.00;99.90
18173;DHT22;9211;48.818;9.312;2024-02-14T18:40:57;14.60;99.90
18173;DHT22;9211;48.818;9.312;2024-02-14T18:43:25;14.80;99.90
18173;DHT22;9211;48.818;9.312;2024-02-14T18:45:52;14.50;99.90
18173;DHT22;9211;48.818;9.312;2024-02-14T18:50:48;14.30;99.90
18173;DHT22;9211;48.818;9.312;2024-02-14T18:55:42;14.20;99.90
18173;DHT22;9211;48.818;9.312;2024-02-14T18:58:10;14.50;99.90
18173;DHT22;9211;48.818;9.312;2024-02-14T19:00:37;14.20;99.90
18173;DHT22;9211;48.818;9.312;2024-02-14T19:05:31;14.20;99.90
18173;DHT22;9211;48.818;9.312;2024-02-14T19:12:54;14.30;99.90
18173;DHT22;9211;48.818;9.312;2024-02-14T19:22:45;14.40;99.90
18173;DHT22;9211;48.818;9.312;2024-02-14T19:27:41;14.70;99.90
18173;DHT22;9211;48.818;9.312;2024-02-14T19:30:08;14.50;99.90
18173;DHT22;9211;48.818;9.312;2024-02-14T19:32:35;14.70;99.90
18173;DHT22;9211;48.818;9.312;2024-02-14T19:35:05;14.70;99.90
18173;DHT22;9211;48.818;9.312;2024-02-14T19:37:32;14.50;99.90
18173;DHT22;9211;48.818;9.312;2024-02-14T19:39:59;14.30;99.90
18173;DHT22;9211;48.818;9.312;2024-02-14T19:42:27;14.40;99.90
18173;DHT22;9211;48.818;9.312;2024-02-14T19:44:54;14.00;99.90
18173;DHT22;9211;48.818;9.312;2024-02-14T19:49:48;14.30;99.90
18173;DHT22;9211;48.818;9.312;2024-02-14T19:52:15;14.00;99.90